Time;durP1;ratioP1;P1;durP2;ratioP2;P2;SDS_P1;SDS_P2;PMS_P1;PMS_P2;Temp;Humidity;BMP_temperature;BMP_pressure;BME280_temperature;BME280_humidity;BME280_pressure;Samples;Min_cycle;Max_cycle;Signal;HPM_P1;HPM_P2
2022/05/03 00:00:19;;;;;;;;;;;21.10;50.40;;;;;;5075597;28;19925;-50
2022/05/03 00:02:58;;;;;;;;;;;21.10;50.40;;;;;;5090914;28;19931;-46
2022/05/03 00:05:31;;;;;;;;;;;21.10;50.40;;;;;;5095752;28;20360;-47
2022/05/03 00:08:01;;;;;;;;;;;21.10;50.40;;;;;;5096070;28;20299;-50
2022/05/03 00:10:31;;;;;;;;;;;21.10;50.50;;;;;;5076712;28;19931;-48
2022/05/03 00:13:09;;;;;;;;;;;21.10;50.50;;;;;;5091514;28;19925;-46
2022/05/03 00:15:38;;;;;;;;;;;21.10;50.50;;;;;;5075470;28;19925;-48
2022/05/03 00:18:06;;;;;;;;;;;21.10;50.50;;;;;;5058201;28;19925;-50
2022/05/03 00:20:34;;;;;;;;;;;21.10;50.50;;;;;;5081602;28;19982;-49
2022/05/03 00:23:01;;;;;;;;;;;21.00;51.00;;;;;;5095490;28;19924;-47
2022/05/03 00:25:29;;;;;;;;;;;21.10;50.50;;;;;;5095833;28;19924;-48
2022/05/03 00:27:57;;;;;;;;;;;21.10;50.50;;;;;;5095467;28;20357;-48
2022/05/03 00:30:24;;;;;;;;;;;21.10;50.50;;;;;;5095100;28;20410;-51
2022/05/03 00:32:51;;;;;;;;;;;21.10;50.50;;;;;;5094834;28;20380;-47
2022/05/03 00:35:21;;;;;;;;;;;21.10;50.50;;;;;;5095691;28;19969;-50
2022/05/03 00:37:48;;;;;;;;;;;21.10;50.50;;;;;;5095259;28;19978;-48
2022/05/03 00:40:17;;;;;;;;;;;21.10;50.50;;;;;;5094993;28;20437;-48
2022/05/03 00:42:46;;;;;;;;;;;21.10;50.50;;;;;;5095118;28;19932;-46
2022/05/03 00:45:22;;;;;;;;;;;21.10;50.50;;;;;;5095143;28;19932;-50
2022/05/03 00:47:51;;;;;;;;;;;21.10;50.50;;;;;;5095394;28;20038;-46
2022/05/03 00:50:32;;;;;;;;;;;21.10;50.60;;;;;;5088782;28;19947;-50
2022/05/03 00:53:09;;;;;;;;;;;21.10;50.60;;;;;;5075228;28;19925;-51
2022/05/03 00:55:42;;;;;;;;;;;21.10;50.60;;;;;;5074348;28;19924;-47
2022/05/03 00:58:28;;;;;;;;;;;21.00;50.40;;;;;;5082651;28;20380;-47
2022/05/03 01:00:58;;;;;;;;;;;21.10;50.50;;;;;;5094792;28;19928;-47
2022/05/03 01:03:26;;;;;;;;;;;21.10;50.60;;;;;;5094649;28;19931;-52
2022/05/03 01:06:14;;;;;;;;;;;21.10;50.50;;;;;;5094375;28;19924;-47
2022/05/03 01:08:57;;;;;;;;;;;21.10;50.50;;;;;;5090207;28;19931;-49
2022/05/03 01:11:24;;;;;;;;;;;21.10;50.60;;;;;;5056678;28;19928;-46
2022/05/03 01:13:53;;;;;;;;;;;21.10;50.60;;;;;;5074490;28;19925;-48
2022/05/03 01:16:40;;;;;;;;;;;21.10;50.60;;;;;;5076801;28;20417;-46
2022/05/03 01:19:27;;;;;;;;;;;21.10;50.60;;;;;;5094296;28;20399;-55
2022/05/03 01:22:24;;;;;;;;;;;21.00;50.50;;;;;;5094157;28;20383;-55
2022/05/03 01:24:54;;;;;;;;;;;21.00;50.50;;;;;;5078875;28;19931;-55
2022/05/03 01:27:32;;;;;;;;;;;21.00;50.50;;;;;;5094496;28;20284;-50
2022/05/03 01:30:01;;;;;;;;;;;21.00;50.50;;;;;;5094863;28;19931;-55
2022/05/03 01:32:31;;;;;;;;;;;21.10;50.60;;;;;;5094179;28;19928;-54
2022/05/03 01:35:01;;;;;;;;;;;21.00;50.50;;;;;;5094233;28;20377;-51
2022/05/03 01:37:37;;;;;;;;;;;21.00;50.50;;;;;;5094320;28;19924;-55
2022/05/03 01:40:04;;;;;;;;;;;21.00;50.50;;;;;;5094395;28;19989;-54
2022/05/03 01:42:50;;;;;;;;;;;21.00;50.50;;;;;;5094366;28;19931;-55
2022/05/03 01:45:23;;;;;;;;;;;21.00;50.50;;;;;;5093920;28;19954;-54
2022/05/03 01:47:56;;;;;;;;;;;21.00;50.50;;;;;;5077127;28;19924;-49
2022/05/03 01:50:32;;;;;;;;;;;21.00;50.50;;;;;;5073226;28;20399;-48
2022/05/03 01:53:18;;;;;;;;;;;21.00;50.50;;;;;;5073916;28;19947;-47
2022/05/03 01:56:03;;;;;;;;;;;21.00;51.10;;;;;;5092649;28;19931;-47
2022/05/03 01:58:30;;;;;;;;;;;21.00;50.50;;;;;;5093688;28;19931;-48
2022/05/03 02:01:05;;;;;;;;;;;21.00;50.50;;;;;;5093999;28;19924;-48
2022/05/03 02:03:45;;;;;;;;;;;21.00;50.50;;;;;;5093930;28;19924;-48
2022/05/03 02:06:13;;;;;;;;;;;21.00;50.50;;;;;;5093654;28;20363;-51
2022/05/03 02:08:58;;;;;;;;;;;21.00;50.50;;;;;;5090186;28;19928;-52
2022/05/03 02:11:45;;;;;;;;;;;21.00;50.50;;;;;;5072980;28;19925;-53
2022/05/03 02:17:01;;;;;;;;;;;21.00;50.60;;;;;;5092648;28;20371;-50
2022/05/03 02:19:47;;;;;;;;;;;21.00;50.50;;;;;;5093359;28;19924;-53
2022/05/03 02:22:23;;;;;;;;;;;21.00;50.50;;;;;;5073213;28;20430;-51
2022/05/03 02:24:50;;;;;;;;;;;21.00;50.50;;;;;;5073219;28;19924;-55
2022/05/03 02:27:18;;;;;;;;;;;21.00;50.50;;;;;;5073289;28;19947;-51
2022/05/03 02:29:47;;;;;;;;;;;21.00;51.10;;;;;;5073351;28;20437;-53
2022/05/03 02:32:17;;;;;;;;;;;21.00;50.50;;;;;;5072775;28;19932;-49
2022/05/03 02:35:03;;;;;;;;;;;21.00;50.50;;;;;;5093151;28;19935;-53
2022/05/03 02:37:30;;;;;;;;;;;21.00;50.50;;;;;;5093132;28;19925;-56
2022/05/03 02:40:02;;;;;;;;;;;21.00;50.50;;;;;;5092995;28;19954;-47
2022/05/03 02:42:29;;;;;;;;;;;21.00;50.50;;;;;;5093101;28;20303;-47
2022/05/03 02:44:56;;;;;;;;;;;21.00;50.50;;;;;;5092815;28;19997;-46
2022/05/03 02:47:40;;;;;;;;;;;21.00;50.50;;;;;;5092936;28;19928;-48
2022/05/03 02:50:12;;;;;;;;;;;21.00;50.50;;;;;;5092608;28;19928;-47
2022/05/03 02:52:48;;;;;;;;;;;21.00;50.50;;;;;;5093291;28;19924;-47
2022/05/03 02:55:18;;;;;;;;;;;21.00;50.50;;;;;;5093431;28;19928;-49
2022/05/03 02:57:50;;;;;;;;;;;21.00;50.50;;;;;;5093468;28;20307;-48
2022/05/03 03:03:15;;;;;;;;;;;21.00;50.50;;;;;;5092882;28;19924;-48
2022/05/03 03:05:44;;;;;;;;;;;21.00;50.50;;;;;;5092841;28;19969;-49
2022/05/03 03:08:12;;;;;;;;;;;21.00;50.50;;;;;;5092827;28;19924;-47
2022/05/03 03:10:57;;;;;;;;;;;21.00;50.50;;;;;;5090961;28;19975;-50
2022/05/03 03:13:46;;;;;;;;;;;21.00;50.50;;;;;;5092531;28;19985;-47
2022/05/03 03:16:14;;;;;;;;;;;21.00;50.50;;;;;;5090910;28;19935;-47
2022/05/03 03:18:43;;;;;;;;;;;21.00;50.50;;;;;;5092652;28;19969;-47
2022/05/03 03:21:12;;;;;;;;;;;21.00;50.50;;;;;;5093061;28;19924;-47
2022/05/03 03:23:41;;;;;;;;;;;21.00;50.60;;;;;;5092520;28;20376;-46
2022/05/03 03:26:09;;;;;;;;;;;21.00;50.50;;;;;;5092818;28;19931;-47
2022/05/03 03:28:36;;;;;;;;;;;21.00;50.50;;;;;;5096399;28;19946;-48
2022/05/03 03:31:05;;;;;;;;;;;21.00;50.60;;;;;;5096542;28;19931;-46
2022/05/03 03:33:34;;;;;;;;;;;21.00;50.50;;;;;;5096678;28;19924;-48
2022/05/03 03:36:06;;;;;;;;;;;21.00;50.50;;;;;;5096863;28;20311;-47
2022/05/03 03:38:37;;;;;;;;;;;21.00;50.50;;;;;;5096383;28;19924;-50
2022/05/03 03:41:05;;;;;;;;;;;21.00;50.50;;;;;;5096747;28;20015;-47
2022/05/03 03:43:32;;;;;;;;;;;21.00;50.50;;;;;;5096421;28;19928;-47
2022/05/03 03:45:58;;;;;;;;;;;21.00;50.50;;;;;;5096236;28;19931;-46
2022/05/03 03:48:26;;;;;;;;;;;21.00;50.50;;;;;;5095962;28;19981;-47
2022/05/03 03:50:55;;;;;;;;;;;21.00;50.50;;;;;;5096408;28;19977;-47
2022/05/03 03:53:22;;;;;;;;;;;21.00;50.50;;;;;;5096240;28;19928;-46
2022/05/03 03:55:49;;;;;;;;;;;20.90;50.40;;;;;;5078677;28;19928;-47
2022/05/03 03:58:17;;;;;;;;;;;21.00;50.50;;;;;;5096351;28;19928;-47
2022/05/03 04:00:45;;;;;;;;;;;21.00;50.50;;;;;;5095734;28;19998;-45
2022/05/03 04:03:13;;;;;;;;;;;21.00;50.50;;;;;;5096268;28;19924;-46
2022/05/03 04:05:40;;;;;;;;;;;21.00;50.50;;;;;;5088698;28;20354;-46
2022/05/03 04:08:07;;;;;;;;;;;21.00;50.40;;;;;;5080143;28;20268;-47
2022/05/03 04:10:34;;;;;;;;;;;21.00;50.40;;;;;;5075777;28;20387;-46
2022/05/03 04:13:01;;;;;;;;;;;21.00;50.40;;;;;;5081038;28;19998;-48
2022/05/03 04:15:28;;;;;;;;;;;21.00;50.40;;;;;;5095436;28;20421;-49
2022/05/03 04:17:55;;;;;;;;;;;21.00;50.40;;;;;;5095771;28;19928;-46
2022/05/03 04:20:23;;;;;;;;;;;21.00;50.40;;;;;;5095882;28;19924;-49
2022/05/03 04:22:49;;;;;;;;;;;21.00;50.40;;;;;;5095257;28;19925;-46
2022/05/03 04:25:16;;;;;;;;;;;21.10;50.50;;;;;;5095257;28;20372;-46
2022/05/03 04:27:43;;;;;;;;;;;21.10;50.40;;;;;;5095231;28;19924;-46
2022/05/03 04:30:11;;;;;;;;;;;21.00;50.40;;;;;;5095396;28;19930;-49
2022/05/03 04:32:38;;;;;;;;;;;21.00;50.40;;;;;;5095294;28;20379;-49
2022/05/03 04:35:05;;;;;;;;;;;21.10;50.40;;;;;;5095295;28;20406;-49
2022/05/03 04:37:32;;;;;;;;;;;21.10;50.40;;;;;;5077053;28;19955;-47
2022/05/03 04:39:59;;;;;;;;;;;21.10;50.40;;;;;;5094737;28;20280;-51
2022/05/03 04:42:26;;;;;;;;;;;21.10;50.40;;;;;;5095318;28;19975;-55
2022/05/03 04:44:53;;;;;;;;;;;21.10;50.40;;;;;;5094782;28;19924;-51
2022/05/03 04:47:20;;;;;;;;;;;21.00;50.20;;;;;;5094561;28;19931;-49
2022/05/03 04:49:48;;;;;;;;;;;21.10;50.30;;;;;;5094940;28;19924;-49
2022/05/03 04:52:16;;;;;;;;;;;21.10;50.30;;;;;;5094384;28;19961;-47
2022/05/03 04:54:43;;;;;;;;;;;21.10;50.20;;;;;;5094925;28;19924;-49
2022/05/03 04:57:10;;;;;;;;;;;21.10;50.20;;;;;;5094976;28;19924;-48
2022/05/03 04:59:38;;;;;;;;;;;21.10;50.20;;;;;;5092413;28;19928;-48
2022/05/03 05:02:05;;;;;;;;;;;21.20;50.30;;;;;;5083825;28;20395;-47
2022/05/03 05:04:32;;;;;;;;;;;21.20;50.20;;;;;;5085821;28;19924;-51
2022/05/03 05:06:59;;;;;;;;;;;21.20;50.20;;;;;;5085896;28;19924;-49
2022/05/03 05:09:26;;;;;;;;;;;21.20;50.10;;;;;;5084144;28;20372;-50
2022/05/03 05:11:53;;;;;;;;;;;21.20;50.10;;;;;;5084505;28;19954;-50
2022/05/03 05:14:20;;;;;;;;;;;21.30;50.10;;;;;;5082255;28;19924;-50
2022/05/03 05:16:48;;;;;;;;;;;21.30;50.10;;;;;;5073986;28;19968;-48
2022/05/03 05:19:16;;;;;;;;;;;21.30;50.00;;;;;;5073508;28;19928;-46
2022/05/03 05:21:43;;;;;;;;;;;21.30;49.90;;;;;;5080181;28;19931;-49
2022/05/03 05:24:11;;;;;;;;;;;21.30;50.50;;;;;;5076021;28;19928;-47
2022/05/03 05:26:39;;;;;;;;;;;21.30;49.90;;;;;;5094331;28;20348;-49
2022/05/03 05:29:06;;;;;;;;;;;21.30;49.80;;;;;;5094197;28;20556;-51
2022/05/03 05:31:34;;;;;;;;;;;21.40;49.90;;;;;;5087669;28;19982;-48
2022/05/03 05:34:02;;;;;;;;;;;21.30;49.80;;;;;;5073770;28;19966;-47
2022/05/03 05:36:29;;;;;;;;;;;21.40;49.90;;;;;;5072906;28;19929;-48
2022/05/03 05:38:56;;;;;;;;;;;21.40;49.90;;;;;;5074097;28;20307;-49
2022/05/03 05:41:23;;;;;;;;;;;21.40;49.90;;;;;;5073886;28;19924;-49
2022/05/03 05:43:50;;;;;;;;;;;21.40;49.90;;;;;;5073994;28;19993;-50
2022/05/03 05:46:17;;;;;;;;;;;21.40;49.90;;;;;;5073443;28;19924;-48
2022/05/03 05:49:08;;;;;;;;;;;21.40;49.90;;;;;;5073906;28;20307;-52
2022/05/03 05:51:35;;;;;;;;;;;21.40;49.90;;;;;;5093476;28;19928;-47
2022/05/03 05:54:02;;;;;;;;;;;21.40;49.90;;;;;;5098207;28;19927;-51
2022/05/03 05:56:29;;;;;;;;;;;21.40;50.00;;;;;;5113572;28;19976;-50
2022/05/03 05:58:56;;;;;;;;;;;21.40;50.00;;;;;;5099882;28;19928;-47
2022/05/03 06:01:24;;;;;;;;;;;21.40;50.00;;;;;;5093532;28;19924;-51
2022/05/03 06:03:52;;;;;;;;;;;21.40;50.00;;;;;;5093731;28;19924;-52
2022/05/03 06:06:19;;;;;;;;;;;21.40;50.00;;;;;;5091910;28;19924;-46
2022/05/03 06:08:46;;;;;;;;;;;21.40;50.00;;;;;;5088769;28;19924;-46
2022/05/03 06:11:13;;;;;;;;;;;21.40;50.00;;;;;;5073586;28;19931;-47
2022/05/03 06:13:40;;;;;;;;;;;21.40;50.00;;;;;;5072908;28;19970;-49
2022/05/03 06:16:08;;;;;;;;;;;21.40;50.00;;;;;;5073453;28;20273;-51
2022/05/03 06:18:36;;;;;;;;;;;21.40;50.00;;;;;;5073176;28;20031;-48
2022/05/03 06:21:05;;;;;;;;;;;21.40;50.00;;;;;;5090220;28;20284;-47
2022/05/03 06:23:32;;;;;;;;;;;21.40;50.10;;;;;;5093415;28;20375;-47
2022/05/03 06:25:59;;;;;;;;;;;21.40;50.10;;;;;;5093595;28;19928;-47
2022/05/03 06:28:26;;;;;;;;;;;21.40;50.10;;;;;;5081735;28;20288;-50
2022/05/03 06:30:53;;;;;;;;;;;21.40;50.10;;;;;;5073564;28;20296;-49
2022/05/03 06:33:20;;;;;;;;;;;21.40;50.10;;;;;;5073457;28;19924;-48
2022/05/03 06:35:47;;;;;;;;;;;21.40;50.10;;;;;;5073369;28;19931;-49
2022/05/03 06:38:14;;;;;;;;;;;21.40;50.10;;;;;;5072946;28;19925;-52
2022/05/03 06:40:41;;;;;;;;;;;21.40;50.10;;;;;;5088744;28;19925;-50
2022/05/03 06:43:09;;;;;;;;;;;21.40;50.10;;;;;;5073489;28;20300;-49
2022/05/03 06:45:36;;;;;;;;;;;21.40;50.10;;;;;;5073302;28;20342;-50
2022/05/03 06:48:06;;;;;;;;;;;21.40;50.00;;;;;;5087628;28;19924;-51
2022/05/03 06:50:33;;;;;;;;;;;21.40;50.10;;;;;;5092907;28;19925;-47
2022/05/03 06:53:00;;;;;;;;;;;21.40;50.00;;;;;;5093471;28;19924;-49
2022/05/03 06:55:27;;;;;;;;;;;21.40;50.10;;;;;;5093062;28;19924;-49
2022/05/03 06:57:54;;;;;;;;;;;21.40;50.10;;;;;;5092861;28;19931;-49
2022/05/03 07:00:21;;;;;;;;;;;21.40;50.10;;;;;;5092952;28;19951;-52
2022/05/03 07:02:48;;;;;;;;;;;21.40;50.00;;;;;;5094024;28;19931;-50
2022/05/03 07:05:15;;;;;;;;;;;21.40;50.00;;;;;;5097147;28;19974;-48
2022/05/03 07:07:42;;;;;;;;;;;21.40;50.00;;;;;;5078906;28;19931;-47
2022/05/03 07:10:09;;;;;;;;;;;21.40;50.00;;;;;;5096878;28;19924;-50
2022/05/03 07:12:38;;;;;;;;;;;21.40;50.00;;;;;;5096734;28;19943;-51
2022/05/03 07:15:06;;;;;;;;;;;21.40;50.00;;;;;;5096899;28;19928;-53
2022/05/03 07:23:04;;;;;;;;;;;21.50;50.00;;;;;;5096722;28;20439;-53
2022/05/03 07:25:32;;;;;;;;;;;21.50;50.00;;;;;;5078125;28;19925;-48
2022/05/03 07:27:59;;;;;;;;;;;21.50;50.00;;;;;;5076518;28;19932;-50
2022/05/03 07:30:26;;;;;;;;;;;21.50;50.00;;;;;;5076399;28;19924;-46
2022/05/03 07:32:54;;;;;;;;;;;21.50;49.90;;;;;;5076197;28;19932;-48
2022/05/03 07:35:21;;;;;;;;;;;21.50;49.90;;;;;;5076235;28;19924;-49
2022/05/03 07:37:50;;;;;;;;;;;21.50;49.90;;;;;;5076202;28;19924;-50
2022/05/03 07:40:17;;;;;;;;;;;21.50;49.90;;;;;;5075910;28;20411;-50
2022/05/03 07:42:44;;;;;;;;;;;21.50;49.90;;;;;;5077670;28;19925;-47
2022/05/03 07:45:11;;;;;;;;;;;21.50;49.90;;;;;;5096717;28;20391;-49
2022/05/03 07:47:38;;;;;;;;;;;21.50;49.80;;;;;;5096353;28;19924;-48
2022/05/03 07:50:05;;;;;;;;;;;21.50;49.80;;;;;;5096622;28;19928;-53
2022/05/03 07:52:34;;;;;;;;;;;21.60;49.90;;;;;;5096235;28;19930;-53
2022/05/03 07:55:02;;;;;;;;;;;21.60;49.80;;;;;;5096440;28;19924;-53
2022/05/03 07:57:29;;;;;;;;;;;21.50;49.80;;;;;;5094111;28;19929;-47
2022/05/03 07:59:57;;;;;;;;;;;21.60;49.80;;;;;;5096571;28;19928;-54
2022/05/03 08:02:25;;;;;;;;;;;21.60;49.80;;;;;;5095806;28;20379;-55
2022/05/03 08:04:52;;;;;;;;;;;21.60;49.80;;;;;;5096391;28;19924;-52
2022/05/03 08:07:20;;;;;;;;;;;21.60;49.80;;;;;;5095882;28;20397;-52
2022/05/03 08:09:51;;;;;;;;;;;21.60;49.80;;;;;;5082232;28;19924;-54
2022/05/03 08:12:18;;;;;;;;;;;21.60;49.70;;;;;;5083127;28;19924;-50
2022/05/03 08:14:46;;;;;;;;;;;21.70;49.80;;;;;;5094758;28;19931;-47
2022/05/03 08:17:13;;;;;;;;;;;21.70;49.80;;;;;;5096054;28;19977;-55
2022/05/03 08:19:40;;;;;;;;;;;21.70;49.80;;;;;;5095778;28;20264;-50
2022/05/03 08:22:08;;;;;;;;;;;21.70;49.80;;;;;;5095680;28;19931;-53
2022/05/03 08:24:36;;;;;;;;;;;21.70;49.80;;;;;;5095216;28;19928;-49
2022/05/03 08:27:04;;;;;;;;;;;21.70;49.80;;;;;;5095529;28;20383;-47
2022/05/03 08:29:31;;;;;;;;;;;21.70;49.80;;;;;;5095553;28;19924;-47
2022/05/03 08:31:59;;;;;;;;;;;21.70;49.80;;;;;;5095703;28;20014;-46
2022/05/03 08:34:27;;;;;;;;;;;21.70;49.80;;;;;;5095416;28;19928;-46
2022/05/03 08:42:30;;;;;;;;;;;21.70;49.70;;;;;;5095165;28;19931;-47
2022/05/03 08:44:57;;;;;;;;;;;21.80;49.80;;;;;;5095219;28;19928;-49
2022/05/03 08:47:27;;;;;;;;;;;21.80;49.80;;;;;;5083671;28;19925;-46
2022/05/03 08:50:04;;;;;;;;;;;21.80;49.70;;;;;;5074866;28;19924;-51
2022/05/03 08:52:34;;;;;;;;;;;21.80;49.70;;;;;;5074530;28;19924;-49
2022/05/03 08:55:01;;;;;;;;;;;21.80;49.70;;;;;;5092793;28;19924;-47
2022/05/03 08:57:28;;;;;;;;;;;21.80;49.60;;;;;;5094915;28;19928;-46
2022/05/03 08:59:56;;;;;;;;;;;21.80;49.60;;;;;;5094896;28;20453;-48
2022/05/03 09:02:24;;;;;;;;;;;21.80;49.60;;;;;;5095011;28;19928;-45
2022/05/03 09:04:51;;;;;;;;;;;21.80;49.60;;;;;;5095195;28;19924;-47
2022/05/03 09:07:19;;;;;;;;;;;21.80;49.60;;;;;;5094650;28;19923;-46
2022/05/03 09:09:47;;;;;;;;;;;21.80;49.60;;;;;;5081760;28;19954;-46
2022/05/03 09:12:30;;;;;;;;;;;21.80;49.60;;;;;;5074713;28;19924;-48
2022/05/03 09:14:59;;;;;;;;;;;21.80;49.60;;;;;;5074719;28;19979;-47
2022/05/03 09:17:34;;;;;;;;;;;21.80;49.50;;;;;;5087845;28;19932;-51
2022/05/03 09:23:46;;;;;;;;;;;21.90;49.60;;;;;;5094830;28;19928;-49
2022/05/03 09:25:47;;;;;;;;;;;21.90;49.60;;;;;;5094770;28;19924;-49
2022/05/03 09:28:14;;;;;;;;;;;21.90;49.60;;;;;;5076702;28;19931;-51
2022/05/03 09:30:51;;;;;;;;;;;21.90;49.60;;;;;;5094765;28;20322;-50
2022/05/03 09:33:22;;;;;;;;;;;21.90;49.60;;;;;;5094335;28;19947;-49
2022/05/03 09:35:50;;;;;;;;;;;21.90;49.60;;;;;;5094498;28;20287;-49
2022/05/03 09:38:17;;;;;;;;;;;21.90;49.50;;;;;;5094373;28;19932;-50
2022/05/03 09:40:45;;;;;;;;;;;21.90;49.60;;;;;;5094315;28;19924;-48
2022/05/03 09:43:13;;;;;;;;;;;21.90;49.50;;;;;;5086359;28;19925;-51
2022/05/03 09:45:40;;;;;;;;;;;21.90;49.60;;;;;;5073735;28;19931;-48
2022/05/03 09:48:07;;;;;;;;;;;22.00;49.60;;;;;;5073633;28;19967;-50
2022/05/03 09:50:44;;;;;;;;;;;22.00;49.60;;;;;;5080167;28;19928;-49
2022/05/03 09:53:13;;;;;;;;;;;22.00;49.60;;;;;;5094082;28;19959;-50
2022/05/03 09:55:41;;;;;;;;;;;21.90;49.50;;;;;;5094068;28;19924;-52
2022/05/03 09:58:11;;;;;;;;;;;22.00;49.60;;;;;;5093652;28;19931;-47
2022/05/03 10:00:46;;;;;;;;;;;22.00;49.60;;;;;;5094152;28;20385;-49
2022/05/03 10:03:14;;;;;;;;;;;22.00;49.60;;;;;;5094315;28;19931;-47
2022/05/03 10:05:42;;;;;;;;;;;22.00;49.60;;;;;;5093421;28;19924;-47
2022/05/03 10:08:16;;;;;;;;;;;22.00;49.60;;;;;;5093710;28;19924;-47
2022/05/03 10:10:56;;;;;;;;;;;22.00;49.60;;;;;;5073573;28;20281;-50
2022/05/03 10:13:25;;;;;;;;;;;22.00;49.70;;;;;;5084452;28;19924;-50
2022/05/03 10:21:31;;;;;;;;;;;22.00;49.80;;;;;;5073404;28;20281;-49
2022/05/03 10:24:01;;;;;;;;;;;22.00;49.80;;;;;;5073336;28;20343;-48
2022/05/03 10:26:47;;;;;;;;;;;22.00;49.80;;;;;;5073204;28;19929;-48
2022/05/03 10:29:14;;;;;;;;;;;22.00;49.80;;;;;;5073293;28;20304;-52
2022/05/03 10:31:54;;;;;;;;;;;22.00;49.80;;;;;;5072986;28;19925;-47
2022/05/03 10:34:46;;;;;;;;;;;22.00;49.80;;;;;;5073568;28;19924;-48
2022/05/03 10:37:14;;;;;;;;;;;22.00;49.80;;;;;;5072573;28;19924;-49
2022/05/03 10:39:46;;;;;;;;;;;22.00;49.80;;;;;;5082527;28;20428;-48
2022/05/03 10:42:14;;;;;;;;;;;22.00;50.40;;;;;;5093548;28;19924;-47
2022/05/03 10:44:44;;;;;;;;;;;22.00;49.80;;;;;;5093732;28;20393;-46
2022/05/03 10:47:13;;;;;;;;;;;22.00;49.80;;;;;;5091264;28;19931;-47
2022/05/03 10:49:59;;;;;;;;;;;22.00;49.80;;;;;;5093442;28;19970;-48
2022/05/03 10:52:26;;;;;;;;;;;22.00;49.80;;;;;;5093284;28;19930;-50
2022/05/03 10:55:06;;;;;;;;;;;22.00;49.90;;;;;;5092834;28;20307;-49
2022/05/03 10:57:53;;;;;;;;;;;22.00;49.80;;;;;;5093147;28;20380;-50
2022/05/03 11:00:38;;;;;;;;;;;22.10;49.90;;;;;;5092764;28;19928;-50
2022/05/03 11:03:18;;;;;;;;;;;22.00;49.80;;;;;;5093143;28;20380;-52
2022/05/03 11:06:05;;;;;;;;;;;22.00;49.80;;;;;;5093044;28;20138;-54
2022/05/03 11:08:32;;;;;;;;;;;22.00;49.80;;;;;;5091639;28;19931;-50
2022/05/03 11:10:59;;;;;;;;;;;22.10;49.80;;;;;;5093327;28;19947;-54
2022/05/03 11:13:41;;;;;;;;;;;22.00;49.80;;;;;;5093343;28;19924;-47
2022/05/03 11:16:22;;;;;;;;;;;22.00;49.80;;;;;;5093526;28;19928;-52
2022/05/03 11:18:49;;;;;;;;;;;22.10;49.80;;;;;;5093033;28;19924;-53
2022/05/03 11:21:17;;;;;;;;;;;22.10;49.80;;;;;;5093008;28;20288;-49
2022/05/03 11:23:51;;;;;;;;;;;22.10;49.80;;;;;;5093016;28;19924;-47
2022/05/03 11:26:19;;;;;;;;;;;22.10;49.80;;;;;;5093158;28;20295;-48
2022/05/03 11:28:49;;;;;;;;;;;22.10;49.80;;;;;;5092458;28;19931;-53
2022/05/03 11:31:19;;;;;;;;;;;22.10;49.80;;;;;;5092831;28;19924;-47
2022/05/03 11:33:48;;;;;;;;;;;22.10;49.80;;;;;;5092651;28;19935;-47
2022/05/03 11:36:15;;;;;;;;;;;22.10;49.80;;;;;;5093100;28;19953;-48
2022/05/03 11:38:42;;;;;;;;;;;22.10;49.80;;;;;;5092819;28;19931;-52
2022/05/03 11:41:14;;;;;;;;;;;22.10;49.80;;;;;;5093113;28;20002;-54
2022/05/03 11:43:41;;;;;;;;;;;22.10;49.80;;;;;;5090596;28;19969;-51
2022/05/03 11:46:08;;;;;;;;;;;22.10;49.80;;;;;;5092635;28;19954;-49
2022/05/03 11:48:35;;;;;;;;;;;22.10;49.80;;;;;;5093192;28;19932;-50
2022/05/03 11:56:35;;;;;;;;;;;22.10;49.70;;;;;;5096178;28;20391;-50
2022/05/03 11:59:03;;;;;;;;;;;22.10;49.70;;;;;;5096288;28;19924;-48
2022/05/03 12:01:34;;;;;;;;;;;22.10;49.70;;;;;;5096144;28;19940;-48
2022/05/03 12:04:03;;;;;;;;;;;22.10;49.70;;;;;;5096432;28;19930;-53
2022/05/03 12:06:43;;;;;;;;;;;22.10;49.70;;;;;;5096100;28;19924;-52
2022/05/03 12:09:11;;;;;;;;;;;22.10;49.80;;;;;;5087834;28;19924;-49
2022/05/03 12:14:34;;;;;;;;;;;22.10;49.70;;;;;;5053221;28;20451;-49
2022/05/03 12:17:01;;;;;;;;;;;22.10;49.70;;;;;;5053431;28;19925;-46
2022/05/03 12:19:32;;;;;;;;;;;22.10;49.70;;;;;;5053277;28;19935;-47
2022/05/03 12:22:07;;;;;;;;;;;22.10;49.70;;;;;;5053208;28;20412;-47
2022/05/03 12:24:38;;;;;;;;;;;22.10;49.70;;;;;;5053141;28;19929;-51
2022/05/03 12:27:11;;;;;;;;;;;22.10;49.70;;;;;;5053853;28;19932;-47
2022/05/03 12:29:42;;;;;;;;;;;22.10;49.70;;;;;;5053227;28;19925;-50
2022/05/03 12:32:13;;;;;;;;;;;22.10;49.70;;;;;;5062493;28;20307;-46
2022/05/03 12:34:43;;;;;;;;;;;22.10;49.70;;;;;;5073045;28;20372;-46
2022/05/03 12:37:12;;;;;;;;;;;22.10;49.70;;;;;;5073112;28;20373;-47
2022/05/03 12:39:39;;;;;;;;;;;22.10;49.70;;;;;;5072630;28;19931;-47
2022/05/03 12:42:10;;;;;;;;;;;22.10;49.70;;;;;;5072907;28;19931;-46
2022/05/03 12:44:47;;;;;;;;;;;22.10;49.70;;;;;;5072924;28;19932;-46
2022/05/03 12:47:14;;;;;;;;;;;22.10;49.70;;;;;;5073104;28;19932;-50
2022/05/03 12:49:41;;;;;;;;;;;22.10;49.70;;;;;;5072843;28;19924;-46
2022/05/03 12:52:08;;;;;;;;;;;22.10;49.70;;;;;;5044383;28;19925;-52
2022/05/03 12:54:39;;;;;;;;;;;22.10;49.70;;;;;;5034897;28;19925;-49
2022/05/03 12:59:53;;;;;;;;;;;22.10;49.60;;;;;;5034516;28;19940;-49
2022/05/03 13:02:22;;;;;;;;;;;22.10;49.70;;;;;;5046985;28;19925;-50
2022/05/03 13:04:49;;;;;;;;;;;22.10;49.60;;;;;;5054781;28;20422;-53
2022/05/03 13:07:16;;;;;;;;;;;22.10;49.60;;;;;;5046722;28;20269;-51
2022/05/03 13:09:43;;;;;;;;;;;22.10;49.60;;;;;;5039395;28;20479;-50
2022/05/03 13:12:11;;;;;;;;;;;22.10;49.60;;;;;;5037279;28;19932;-50
2022/05/03 13:14:38;;;;;;;;;;;22.10;49.60;;;;;;5045710;28;19935;-51
2022/05/03 13:17:05;;;;;;;;;;;22.10;49.60;;;;;;5054268;28;19924;-48
2022/05/03 13:19:32;;;;;;;;;;;22.10;49.70;;;;;;5054073;28;19925;-50
2022/05/03 13:22:00;;;;;;;;;;;22.10;49.60;;;;;;5054814;28;19925;-51
2022/05/03 13:24:27;;;;;;;;;;;22.10;49.60;;;;;;5079901;28;19935;-52
2022/05/03 13:26:55;;;;;;;;;;;22.10;49.60;;;;;;5092194;28;19924;-47
2022/05/03 13:29:21;;;;;;;;;;;22.10;49.60;;;;;;5079314;28;19932;-51
2022/05/03 13:31:49;;;;;;;;;;;22.10;49.70;;;;;;5076518;28;19932;-50
2022/05/03 13:34:16;;;;;;;;;;;22.10;49.60;;;;;;5090559;28;19932;-47
2022/05/03 13:42:15;;;;;;;;;;;22.10;50.30;;;;;;5094277;28;19930;-49
2022/05/03 13:44:42;;;;;;;;;;;22.10;49.70;;;;;;5094200;28;19931;-49
2022/05/03 13:47:10;;;;;;;;;;;22.10;49.70;;;;;;5094250;28;19953;-48
2022/05/03 13:49:37;;;;;;;;;;;22.10;49.70;;;;;;5094199;28;19924;-47
2022/05/03 13:52:05;;;;;;;;;;;22.10;49.80;;;;;;5093782;28;19924;-45
2022/05/03 13:54:33;;;;;;;;;;;22.10;50.30;;;;;;5093518;28;19924;-47
2022/05/03 13:57:00;;;;;;;;;;;22.10;49.70;;;;;;5094053;28;19931;-47
2022/05/03 13:59:27;;;;;;;;;;;22.10;49.70;;;;;;5093925;28;20325;-46
2022/05/03 14:01:54;;;;;;;;;;;22.10;49.70;;;;;;5093715;28;19974;-46
2022/05/03 14:04:21;;;;;;;;;;;22.10;49.60;;;;;;5093937;28;20346;-46
2022/05/03 14:06:48;;;;;;;;;;;22.10;49.60;;;;;;5093663;28;19931;-48
2022/05/03 14:09:15;;;;;;;;;;;22.10;49.60;;;;;;5093775;28;19925;-50
2022/05/03 14:11:43;;;;;;;;;;;22.10;50.30;;;;;;5075312;28;19924;-48
2022/05/03 14:14:10;;;;;;;;;;;22.10;49.60;;;;;;5093647;28;19930;-49
2022/05/03 14:16:37;;;;;;;;;;;22.10;49.60;;;;;;5093939;28;19931;-45
2022/05/03 14:19:04;;;;;;;;;;;22.10;49.60;;;;;;5093537;28;19928;-46
2022/05/03 14:21:31;;;;;;;;;;;22.10;49.60;;;;;;5093727;28;20296;-48
2022/05/03 14:24:00;;;;;;;;;;;22.10;49.60;;;;;;5093501;28;20368;-49
2022/05/03 14:26:28;;;;;;;;;;;22.10;49.60;;;;;;5093301;28;19951;-46
2022/05/03 14:28:55;;;;;;;;;;;22.10;49.60;;;;;;5093457;28;19973;-47
2022/05/03 14:31:24;;;;;;;;;;;22.10;49.60;;;;;;5091352;28;20291;-47
2022/05/03 14:33:53;;;;;;;;;;;22.10;49.60;;;;;;5093170;28;19930;-47
2022/05/03 14:36:27;;;;;;;;;;;22.10;49.60;;;;;;5072781;28;19974;-49
2022/05/03 14:38:55;;;;;;;;;;;22.10;49.60;;;;;;5056427;28;19930;-48
2022/05/03 14:41:42;;;;;;;;;;;22.10;49.60;;;;;;5093246;28;19928;-49
2022/05/03 14:44:09;;;;;;;;;;;22.10;49.60;;;;;;5093035;28;19924;-47
2022/05/03 14:46:36;;;;;;;;;;;22.10;49.60;;;;;;5093266;28;20372;-49
2022/05/03 14:49:03;;;;;;;;;;;22.10;49.60;;;;;;5093431;28;20322;-47
2022/05/03 14:51:30;;;;;;;;;;;22.10;49.60;;;;;;5092915;28;20386;-50
2022/05/03 14:53:57;;;;;;;;;;;22.10;49.60;;;;;;5087916;28;19925;-46
2022/05/03 15:04:40;;;;;;;;;;;22.10;49.60;;;;;;5093144;28;20425;-48
2022/05/03 15:07:07;;;;;;;;;;;22.10;49.50;;;;;;5093157;28;19935;-51
2022/05/03 15:09:34;;;;;;;;;;;22.10;50.10;;;;;;5092707;28;19935;-48
2022/05/03 15:12:01;;;;;;;;;;;22.10;49.50;;;;;;5093012;28;20414;-49
2022/05/03 15:14:28;;;;;;;;;;;22.10;49.50;;;;;;5074928;28;19935;-49
2022/05/03 15:16:55;;;;;;;;;;;22.10;49.60;;;;;;5093238;28;19931;-53
2022/05/03 15:19:24;;;;;;;;;;;22.10;49.60;;;;;;5092792;28;19924;-49
2022/05/03 15:21:51;;;;;;;;;;;22.10;49.60;;;;;;5075208;28;19947;-49